»·PEaware :: WAT295 KSEA-KBOI

WAT295 :: KSEA-KBOI

FLIGHT INFORMATION

Flight Status: Arrived
Operator:
Walker Air Transport
More flights by this operator :: More flights under this callsign
Pilot: Corentin D. (28157)
Aircraft: AIRBUS A321
(A321)
More flights by this aircraft type
Origin: KSEA Seattle-Tacoma Intl
United States
Destination: KBOI Boise Air Terminal/Gowen
United States
More flights between these airports :: More routes between these airports
Route: +SEA7 SEA V298 YKM V4 PDT DEVLE KYAAN3
File this flight plan on PilotEdge
Remarks: RMK / SIMBRIEF
Altitude:
(Current/Filed)
23,000ft
Speed:
(Current/Filed)
376kts
Departed: 07-Sep-20 04:14 PM
Arrived: 07-Sep-20 05:22 PM
Distance/Time
Traveled:
346nm/1:08
Distance/Time
To Go:
Arrived

Flight Plot

Page will automatically refresh every two minutes.

Flight plan parsing failed; only flown route is shown


Map Options




Map Legend


Flown Route
Filed Route
Departure Airport
Arrival Airport
Navaid (VOR, NDB)
Fix

Horizontal Profiles

Position Reports

Time Latitude Longitude Heading Altitude Ground
Speed
07-Sep-20 15:32 47.441619 -122.304568 90 435ft 0kts
07-Sep-20 15:33 47.441619 -122.304568 90 435ft 0kts
07-Sep-20 15:34 47.441619 -122.304568 90 435ft 0kts
07-Sep-20 15:35 47.441619 -122.304568 90 435ft 0kts
07-Sep-20 15:36 47.441619 -122.304568 90 435ft 0kts
07-Sep-20 15:37 47.441619 -122.304568 90 435ft 0kts
07-Sep-20 15:38 47.441619 -122.304568 90 435ft 0kts
07-Sep-20 15:39 47.441619 -122.304568 90 435ft 0kts
07-Sep-20 15:40 47.441619 -122.304568 90 435ft 0kts
07-Sep-20 15:41 47.441619 -122.304568 90 435ft 0kts
07-Sep-20 15:42 47.441619 -122.304568 90 435ft 0kts
07-Sep-20 15:43 47.441619 -122.304568 90 435ft 0kts
07-Sep-20 15:44 47.441619 -122.304568 90 435ft 0kts
07-Sep-20 15:45 47.441619 -122.304568 90 435ft 0kts
07-Sep-20 15:46 47.441619 -122.304568 90 435ft 0kts
07-Sep-20 15:47 47.441619 -122.304568 90 435ft 0kts
07-Sep-20 15:48 47.441619 -122.304568 90 435ft 0kts
07-Sep-20 15:49 47.441619 -122.304568 90 435ft 0kts
07-Sep-20 15:50 47.441619 -122.304568 90 435ft 0kts
07-Sep-20 15:51 47.441619 -122.304568 90 435ft 0kts
07-Sep-20 15:52 47.441619 -122.304568 90 435ft 0kts
07-Sep-20 15:53 47.441619 -122.304568 90 435ft 0kts
07-Sep-20 15:54 47.441619 -122.304568 90 435ft 0kts
07-Sep-20 15:55 47.441619 -122.304568 90 435ft 0kts
07-Sep-20 15:56 47.441619 -122.304568 90 435ft 0kts
07-Sep-20 15:57 47.441619 -122.304568 90 435ft 0kts
07-Sep-20 15:58 47.441619 -122.304568 90 435ft 0kts
07-Sep-20 15:59 47.441619 -122.304568 90 435ft 0kts
07-Sep-20 16:00 47.441619 -122.304563 90 435ft 0kts
07-Sep-20 16:01 47.441619 -122.304563 90 435ft 0kts
07-Sep-20 16:02 47.441619 -122.304539 90 435ft 0kts
07-Sep-20 16:03 47.441619 -122.304739 88 435ft 2kts
07-Sep-20 16:04 47.441616 -122.305627 90 435ft 2kts
07-Sep-20 16:05 47.441881 -122.306333 172 435ft 2kts
07-Sep-20 16:06 47.441990 -122.306334 182 435ft 0kts
07-Sep-20 16:07 47.441990 -122.306334 182 435ft 0kts
07-Sep-20 16:08 47.441932 -122.306337 182 435ft 3kts
07-Sep-20 16:09 47.438405 -122.306379 181 435ft 18kts
07-Sep-20 16:10 47.432885 -122.305659 182 435ft 20kts
07-Sep-20 16:11 47.431884 -122.306359 239 435ft 0kts
07-Sep-20 16:12 47.431884 -122.306359 239 435ft 0kts
07-Sep-20 16:13 47.434419 -122.308052 358 436ft 69kts
07-Sep-20 16:14 47.476170 -122.309202 356 2183ft 161kts
07-Sep-20 16:15 47.529142 -122.313375 357 3834ft 219kts
07-Sep-20 16:16 47.598121 -122.318494 357 6020ft 265kts
07-Sep-20 16:17 47.673733 -122.324204 358 8900ft 278kts
07-Sep-20 16:18 47.754594 -122.330242 359 10975ft 313kts
07-Sep-20 16:19 47.809057 -122.240390 98 12215ft 370kts
07-Sep-20 16:20 47.740505 -122.115505 134 14301ft 405kts
07-Sep-20 16:21 47.657743 -121.996369 131 16672ft 417kts
07-Sep-20 16:22 47.574240 -121.874077 131 18772ft 429kts
07-Sep-20 16:23 47.487415 -121.747230 130 20682ft 441kts
07-Sep-20 16:24 47.397995 -121.617268 130 22430ft 453kts
07-Sep-20 16:25 47.306586 -121.485083 130 23155ft 457kts
07-Sep-20 16:26 47.214274 -121.352284 130 23172ft 456kts
07-Sep-20 16:27 47.122339 -121.220316 130 23246ft 456kts
07-Sep-20 16:28 47.030450 -121.089528 130 23312ft 456kts
07-Sep-20 16:29 46.937466 -120.957798 129 23325ft 462kts
07-Sep-20 16:30 46.843752 -120.826096 129 23328ft 463kts
07-Sep-20 16:31 46.749202 -120.693758 128 23313ft 463kts
07-Sep-20 16:32 46.655260 -120.562598 128 23291ft 462kts
07-Sep-20 16:33 46.563115 -120.431448 123 23286ft 459kts
07-Sep-20 16:34 46.481962 -120.288442 121 23285ft 459kts
07-Sep-20 16:36 46.400414 -120.144436 122 23285ft 458kts
07-Sep-20 16:37 46.318618 -120.001128 122 23286ft 459kts
07-Sep-20 16:38 46.236529 -119.858059 122 23289ft 459kts
07-Sep-20 16:39 46.155109 -119.716889 122 23296ft 458kts
07-Sep-20 16:40 46.073371 -119.575868 121 23302ft 457kts
07-Sep-20 16:41 45.992092 -119.436378 122 23285ft 458kts
07-Sep-20 16:42 45.909804 -119.295745 122 23251ft 459kts
07-Sep-20 16:43 45.826527 -119.154817 123 23230ft 459kts
07-Sep-20 16:44 45.743916 -119.015224 122 23219ft 459kts
07-Sep-20 16:45 45.653092 -118.884761 132 23212ft 469kts
07-Sep-20 16:46 45.551458 -118.766513 131 23213ft 468kts
07-Sep-20 16:47 45.450695 -118.648960 131 23213ft 468kts
07-Sep-20 16:48 45.349868 -118.531940 131 23209ft 468kts
07-Sep-20 16:49 45.248565 -118.414904 131 23190ft 469kts
07-Sep-20 16:49 45.163890 -118.317429 132 23171ft 472kts
07-Sep-20 16:51 45.044070 -118.179689 135 23152ft 477kts
07-Sep-20 16:52 44.939979 -118.061005 138 23138ft 481kts
07-Sep-20 16:52 44.852650 -117.962710 138 23129ft 481kts
07-Sep-20 16:53 44.748370 -117.845442 138 23129ft 481kts
07-Sep-20 16:55 44.626360 -117.708453 137 23130ft 481kts
07-Sep-20 16:56 44.523125 -117.593116 138 23130ft 481kts
07-Sep-20 16:56 44.435763 -117.495967 137 23127ft 481kts
07-Sep-20 16:57 44.330840 -117.379714 138 21440ft 486kts
07-Sep-20 16:58 44.228288 -117.266434 138 19286ft 450kts
07-Sep-20 16:59 44.138332 -117.152007 133 16837ft 442kts
07-Sep-20 17:00 44.048175 -117.034068 133 14640ft 429kts
07-Sep-20 17:01 43.965364 -116.921223 125 13637ft 410kts
07-Sep-20 17:02 43.902223 -116.793717 119 12458ft 368kts
07-Sep-20 17:03 43.849711 -116.686018 119 11406ft 324kts
07-Sep-20 17:04 43.798933 -116.582745 120 9839ft 321kts
07-Sep-20 17:05 43.748833 -116.480301 115 8580ft 315kts
07-Sep-20 17:06 43.708647 -116.373013 113 6830ft 317kts
07-Sep-20 17:07 43.669693 -116.268789 113 6316ft 276kts
07-Sep-20 17:08 43.632627 -116.173824 113 6960ft 279kts
07-Sep-20 17:09 43.595311 -116.081658 113 6963ft 261kts
07-Sep-20 17:10 43.567306 -115.989910 103 6979ft 256kts
07-Sep-20 17:11 43.542614 -115.897011 103 6980ft 258kts
07-Sep-20 17:12 43.522725 -115.807243 103 7015ft 230kts
07-Sep-20 17:13 43.473467 -115.776899 202 7068ft 232kts
07-Sep-20 17:14 43.437907 -115.842730 264 7056ft 232kts
07-Sep-20 17:15 43.462395 -115.921365 296 7040ft 195kts
07-Sep-20 17:16 43.484629 -115.984454 295 6247ft 162kts
07-Sep-20 17:17 43.503829 -116.041121 294 5395ft 160kts
07-Sep-20 17:18 43.522896 -116.097626 295 4539ft 157kts
07-Sep-20 17:19 43.541559 -116.152733 295 3693ft 156kts
07-Sep-20 17:20 43.559914 -116.206717 295 2875ft 147kts
07-Sep-20 17:21 43.567022 -116.223640 87 2850ft 2kts
07-Sep-20 17:22 43.566571 -116.220607 37 2853ft 7kts
07-Sep-20 17:23 43.567015 -116.220190 32 2853ft 0kts
07-Sep-20 17:24 43.567015 -116.220190 32 2853ft 0kts
07-Sep-20 17:25 43.567015 -116.220190 32 2853ft 0kts

Navigation Log

Ident Type
Flight plan parsing failed, navigation log unavailable